Ely Municipal Airport
KELO : now visible

Airfield :











YOU CAN JOIN US ON...

 
LOGIN :

Register | Disclaimer

   EN    FR    IT 

 









Legend :    VFR   Marginal VFR   IFR   Intensive IFR   Very Intensive IFR
Visi :
Ceiling :
>= 8 km
>= 3000ft
5 to 8 km
1000 to 3000 ft
1500m to 5 km
500 to 1000 ft
800 to 1500m
200 to 500 ft
< 800m
< 200 ft
Symbols :   Thunderstorms  Fog  Heavy snow  Heavy precipitations  Wind > 20 kt






- Airport Elevation : 1456 ft


KELO - Ely Municipal

CURRENT METAR :
  • 191815Z AUTO 11006KT 10SM SCT020 SCT065 SCT085 22/17 A2989 RMK AO2 LTG DSNT N AND NW

EXPIRED METARs :
  • 191755Z AUTO 15007KT 10SM SCT018 BKN026 21/17 A2988 RMK AO2 LTG DSNT NW
  • 191735Z AUTO 16005KT 10SM SCT018 BKN024 BKN028 21/18 A2988 RMK AO2
  • 191715Z AUTO 11003KT 10SM SCT018 BKN024 OVC045 21/18 A2989 RMK AO2
  • 191655Z AUTO 00000KT 10SM 21/18 A2989 RMK AO2
  • 191635Z AUTO 09003KT 10SM 20/18 A2989 RMK AO2
  • 191615Z AUTO 10003KT 10SM 19/18 A2989 RMK AO2
  • 191555Z AUTO 09003KT 10SM 19/18 A2988 RMK AO2
  • 191535Z AUTO 09005KT 10SM 19/18 A2988 RMK AO2
  • 191515Z AUTO 10005KT 10SM 19/18 A2987 RMK AO2

TAF N/A
KZMP FIR / North America



MET'MAP, your aeronautical weather chart ! - Copyright ORBIFLY December 2007 - Disclaimer

ORBIFLY MET'MAP TEAM :

Programming & Development : Alexandra Zaïnal
Original concept : Baudouin d'Aumeries
Technical & hardware support : Manuel Goepfert
Assistance : Marc-Olivier Méhu




SOURCES & CREDITS :

   NOAA       Earth
Advisory